KMOX

Morris Municipal - Charlie Schmidt Field Airport

Morris, Minnesota, USA
METAR KMOX 181955Z AUTO 24006KT 10SM BKN090 04/M01 A2960 RMK AO2
Observed Flight Rules
Dec-18 @ 19:55 UTC (34 minutes ago) Visual Flight Rules
Wind Visibility Clouds
240° at 6 knots 10 miles
  • Broken at 9,000' AGL
Temperatures Readings
Current 4°C / 39°F
Dewpoint -1°C / 30°F
Humidity 70%
Altimeter 29.6" Hg
Pressure 1002 hPa
Elevation 344
METAR KMOX 181955Z AUTO 24006KT 10SM BKN090 04/M01 A2960 RMK AO2
Observed Flight Rules
Dec-18 @ 19:55 UTC
(34 minutes ago)
VFR
Wind Visibility
240° at 6 knots 10 miles
Clouds
  • Broken at 9,000' AGL
Temperature Dewpoint
4°C / 39°F -1°C / 30°F
Humidity Altimeter Pressure
70% 29.6" Hg 1002 hPa